Time;durP1;ratioP1;P1;durP2;ratioP2;P2;SDS_P1;SDS_P2;PMS_P1;PMS_P2;Temp;Humidity;BMP_temperature;BMP_pressure;BME280_temperature;BME280_humidity;BME280_pressure;Samples;Min_cycle;Max_cycle;Signal;HPM_P1;HPM_P2
2021/01/07 00:00:07;;;;;;;9.82;3.05;;;23.00;48.70;;;;;;5075768;28;20055;-49
2021/01/07 00:02:34;;;;;;;8.70;2.28;;;23.00;48.80;;;;;;5091880;28;20161;-49
2021/01/07 00:05:01;;;;;;;9.75;2.40;;;23.10;48.60;;;;;;5075912;28;20379;-49
2021/01/07 00:07:27;;;;;;;9.35;2.92;;;23.10;48.50;;;;;;5075735;28;20067;-49
2021/01/07 00:09:54;;;;;;;6.97;2.60;;;23.10;48.40;;;;;;5074693;28;20539;-49
2021/01/07 00:12:20;;;;;;;7.22;2.95;;;23.20;48.40;;;;;;5081497;28;20034;-48
2021/01/07 00:14:47;;;;;;;9.00;2.72;;;23.20;48.40;;;;;;5085791;28;20036;-48
2021/01/07 00:17:13;;;;;;;9.20;2.72;;;23.30;48.40;;;;;;5082098;28;20020;-49
2021/01/07 00:19:40;;;;;;;5.45;2.40;;;23.30;48.30;;;;;;5075041;28;20472;-49
2021/01/07 00:22:06;;;;;;;4.97;2.25;;;23.30;48.20;;;;;;5081154;28;20043;-49
2021/01/07 00:24:33;;;;;;;10.20;2.25;;;23.30;48.20;;;;;;5086275;28;20025;-48
2021/01/07 00:26:59;;;;;;;6.00;2.40;;;23.30;48.10;;;;;;5074440;28;20071;-48
2021/01/07 00:29:26;;;;;;;6.65;2.60;;;23.30;48.10;;;;;;5065448;28;20364;-48
2021/01/07 00:31:52;;;;;;;6.72;2.13;;;23.40;48.10;;;;;;5074228;28;20064;-48
2021/01/07 00:34:21;;;;;;;6.85;2.40;;;23.40;48.20;;;;;;5075349;28;20036;-48
2021/01/07 00:36:54;;;;;;;4.68;2.30;;;23.40;48.10;;;;;;5074219;28;20471;-48
2021/01/07 00:39:21;;;;;;;5.10;2.67;;;23.40;48.10;;;;;;5074834;28;20418;-48
2021/01/07 00:41:51;;;;;;;5.65;2.30;;;23.40;48.10;;;;;;5074859;28;20098;-48
2021/01/07 00:44:18;;;;;;;7.53;2.20;;;23.40;48.10;;;;;;5074996;28;20024;-48
2021/01/07 00:46:44;;;;;;;4.97;2.10;;;23.50;48.10;;;;;;5074952;28;20032;-48
2021/01/07 00:49:11;;;;;;;4.13;2.10;;;23.50;48.10;;;;;;5075370;28;20170;-48
2021/01/07 00:51:37;;;;;;;5.32;1.83;;;23.50;48.10;;;;;;5074741;28;20186;-48
2021/01/07 00:54:04;;;;;;;5.25;2.10;;;23.50;48.10;;;;;;5074655;28;20033;-48
2021/01/07 00:56:35;;;;;;;7.47;2.58;;;23.50;48.00;;;;;;5078971;28;20020;-48
2021/01/07 00:59:02;;;;;;;5.13;2.10;;;23.50;48.00;;;;;;5086662;28;20035;-48
2021/01/07 01:01:29;;;;;;;6.35;2.13;;;23.50;48.00;;;;;;5076717;28;20078;-48
2021/01/07 01:03:55;;;;;;;6.28;2.33;;;23.50;48.10;;;;;;5074657;28;20056;-49
2021/01/07 01:06:28;;;;;;;6.20;2.17;;;23.50;48.10;;;;;;5074270;28;20526;-49
2021/01/07 01:08:55;;;;;;;7.38;2.20;;;23.50;48.00;;;;;;5073228;28;20418;-49
2021/01/07 01:11:21;;;;;;;6.70;2.30;;;23.50;48.00;;;;;;5074715;28;20112;-49
2021/01/07 01:13:48;;;;;;;8.98;1.95;;;23.50;48.10;;;;;;5073833;28;20519;-49
2021/01/07 01:16:14;;;;;;;9.02;2.30;;;23.40;48.00;;;;;;5073913;28;20039;-49
2021/01/07 01:18:41;;;;;;;9.45;2.35;;;23.40;48.10;;;;;;5074390;28;20029;-49
2021/01/07 01:21:07;;;;;;;8.43;2.63;;;23.40;48.20;;;;;;5073493;28;20071;-49
2021/01/07 01:23:34;;;;;;;7.28;2.40;;;23.40;48.20;;;;;;5074615;28;20024;-49
2021/01/07 01:26:00;;;;;;;7.82;2.50;;;23.40;48.10;;;;;;5073873;28;20025;-49
2021/01/07 01:28:27;;;;;;;13.00;2.95;;;23.30;48.10;;;;;;5074136;28;20069;-48
2021/01/07 01:30:53;;;;;;;7.25;2.38;;;23.30;48.20;;;;;;5074209;28;20032;-48
2021/01/07 01:33:20;;;;;;;5.32;2.60;;;23.30;48.20;;;;;;5074045;28;20044;-48
2021/01/07 01:35:46;;;;;;;8.48;2.20;;;23.30;48.30;;;;;;5074112;28;20025;-48
2021/01/07 01:38:13;;;;;;;9.18;2.63;;;23.30;48.40;;;;;;5074103;28;20024;-48
2021/01/07 01:40:39;;;;;;;7.85;2.20;;;23.30;49.10;;;;;;5073955;28;20468;-49
2021/01/07 01:43:07;;;;;;;5.88;2.38;;;23.30;48.40;;;;;;5074059;28;20036;-49
2021/01/07 01:45:34;;;;;;;9.50;2.47;;;23.40;48.50;;;;;;5072732;28;20395;-49
2021/01/07 01:48:00;;;;;;;9.95;2.63;;;23.40;48.50;;;;;;5073965;28;20111;-49
2021/01/07 01:50:27;;;;;;;6.55;2.60;;;23.40;48.50;;;;;;5073988;28;20454;-49
2021/01/07 01:52:53;;;;;;;6.30;2.33;;;23.40;48.40;;;;;;5074134;28;20029;-48
2021/01/07 01:55:20;;;;;;;7.93;2.80;;;23.50;48.50;;;;;;5074196;28;20101;-48
2021/01/07 01:57:48;;;;;;;9.85;2.60;;;23.60;48.40;;;;;;5074089;28;20506;-48
2021/01/07 02:00:16;;;;;;;8.95;2.28;;;23.60;48.30;;;;;;5073861;28;20059;-48
2021/01/07 02:02:42;;;;;;;6.32;2.65;;;23.70;48.30;;;;;;5073561;28;20021;-50
2021/01/07 02:05:09;;;;;;;9.52;2.42;;;23.70;48.30;;;;;;5074125;28;20017;-49
2021/01/07 02:07:43;;;;;;;4.90;2.10;;;23.80;48.20;;;;;;5074098;28;20086;-48
2021/01/07 02:10:11;;;;;;;4.20;1.98;;;23.90;48.10;;;;;;5073724;28;20547;-48
2021/01/07 02:12:44;;;;;;;6.70;2.38;;;23.90;48.00;;;;;;5077549;28;20521;-49
2021/01/07 02:15:13;;;;;;;7.22;2.13;;;24.00;47.90;;;;;;5074202;28;20119;-49
2021/01/07 02:17:39;;;;;;;6.03;2.20;;;24.10;48.00;;;;;;5073961;28;20059;-49
2021/01/07 02:20:08;;;;;;;7.18;2.10;;;24.20;47.80;;;;;;5073068;28;20036;-48
2021/01/07 02:22:35;;;;;;;5.05;2.10;;;24.20;47.70;;;;;;5072375;28;20418;-48
2021/01/07 02:25:02;;;;;;;4.80;2.03;;;24.40;47.70;;;;;;5074464;28;20021;-48
2021/01/07 02:27:29;;;;;;;9.32;2.40;;;24.40;47.50;;;;;;5077347;28;20031;-48
2021/01/07 02:29:55;;;;;;;6.20;2.22;;;24.50;47.40;;;;;;5076585;28;20111;-49
2021/01/07 02:32:22;;;;;;;5.70;2.17;;;24.60;47.30;;;;;;5075967;28;20036;-49
2021/01/07 02:34:48;;;;;;;6.13;2.10;;;24.70;47.20;;;;;;5077247;28;20045;-49
2021/01/07 02:37:15;;;;;;;5.63;2.42;;;24.70;47.00;;;;;;5075583;28;20070;-49
2021/01/07 02:39:41;;;;;;;6.95;2.13;;;24.80;47.00;;;;;;5077173;28;20021;-48
2021/01/07 02:42:08;;;;;;;5.05;1.92;;;24.90;46.90;;;;;;5076763;28;20479;-48
2021/01/07 02:44:35;;;;;;;5.57;2.08;;;24.90;46.80;;;;;;5077045;28;20074;-48
2021/01/07 02:47:01;;;;;;;6.85;2.65;;;25.00;46.70;;;;;;5077368;28;20495;-48
2021/01/07 02:49:28;;;;;;;4.85;2.35;;;25.10;46.60;;;;;;5076503;28;20032;-48
2021/01/07 02:51:54;;;;;;;8.35;2.55;;;25.10;46.50;;;;;;5076676;28;20020;-49
2021/01/07 02:54:21;;;;;;;5.38;2.20;;;25.10;46.40;;;;;;5076956;28;20037;-49
2021/01/07 02:56:47;;;;;;;2.97;1.63;;;25.20;46.30;;;;;;5076986;28;20059;-49
2021/01/07 02:59:14;;;;;;;6.15;2.03;;;25.20;46.30;;;;;;5076983;28;20029;-49
2021/01/07 03:01:40;;;;;;;5.72;2.08;;;25.30;46.20;;;;;;5076861;28;20415;-49
2021/01/07 03:04:07;;;;;;;9.30;2.50;;;25.30;46.20;;;;;;5077261;28;20045;-49
2021/01/07 03:06:33;;;;;;;12.25;2.53;;;25.30;46.00;;;;;;5076628;28;20469;-49
2021/01/07 03:09:00;;;;;;;7.53;2.30;;;25.30;46.00;;;;;;5076861;28;20063;-49
2021/01/07 03:11:26;;;;;;;10.35;2.22;;;25.30;45.90;;;;;;5076533;28;20033;-49
2021/01/07 03:13:53;;;;;;;5.07;2.05;;;25.30;45.90;;;;;;5076736;28;20085;-49
2021/01/07 03:16:19;;;;;;;5.80;2.08;;;25.40;46.00;;;;;;5076210;28;20021;-49
2021/01/07 03:18:46;;;;;;;6.55;2.15;;;25.40;45.90;;;;;;5076532;28;20384;-49
2021/01/07 03:21:12;;;;;;;4.95;1.75;;;25.40;45.90;;;;;;5076017;28;20032;-50
2021/01/07 03:23:39;;;;;;;6.07;1.95;;;25.40;45.90;;;;;;5076283;28;20032;-50
2021/01/07 03:26:05;;;;;;;5.55;1.77;;;25.40;45.90;;;;;;5056530;28;20043;-49
2021/01/07 03:28:32;;;;;;;7.57;2.25;;;25.50;45.90;;;;;;5067496;28;20070;-49
2021/01/07 03:30:58;;;;;;;8.10;2.33;;;25.50;45.80;;;;;;5076243;28;20459;-49
2021/01/07 03:33:25;;;;;;;6.13;2.30;;;25.60;45.90;;;;;;5075743;28;20044;-49
2021/01/07 03:35:51;;;;;;;5.28;2.00;;;25.60;45.80;;;;;;5074867;28;20369;-49
2021/01/07 03:38:18;;;;;;;4.07;2.10;;;25.80;45.80;;;;;;5075710;28;20103;-50
2021/01/07 03:40:44;;;;;;;6.78;2.40;;;25.90;45.70;;;;;;5076329;28;20033;-49
2021/01/07 03:43:11;;;;;;;3.35;1.75;;;26.00;45.60;;;;;;5074970;28;20033;-49
2021/01/07 03:45:37;;;;;;;9.50;2.10;;;26.10;45.50;;;;;;5075532;28;20423;-49
2021/01/07 03:48:04;;;;;;;4.72;2.15;;;26.20;45.40;;;;;;5076185;28;20021;-50
2021/01/07 03:50:31;;;;;;;5.07;1.90;;;26.30;45.30;;;;;;5076106;28;20028;-49
2021/01/07 03:52:57;;;;;;;7.28;1.95;;;26.50;45.10;;;;;;5075981;28;20029;-49
2021/01/07 03:55:24;;;;;;;4.53;2.03;;;26.70;45.00;;;;;;5076214;28;20115;-50
2021/01/07 03:57:50;;;;;;;4.25;1.95;;;26.80;44.90;;;;;;5076182;28;20032;-49
2021/01/07 04:00:17;;;;;;;4.75;1.90;;;26.90;44.70;;;;;;5075875;28;20522;-48
2021/01/07 04:02:44;;;;;;;6.18;1.80;;;27.10;44.60;;;;;;5075234;28;20024;-49
2021/01/07 04:05:10;;;;;;;8.23;2.08;;;27.20;44.40;;;;;;5075546;28;20033;-49
2021/01/07 04:07:38;;;;;;;4.55;1.95;;;27.30;44.30;;;;;;5075738;28;20025;-49
2021/01/07 04:10:09;;;;;;;5.50;1.98;;;27.40;44.10;;;;;;5076003;28;20024;-48
2021/01/07 04:12:36;;;;;;;4.32;1.98;;;27.50;43.80;;;;;;5075361;28;20472;-49
2021/01/07 04:15:04;;;;;;;6.82;2.10;;;27.60;43.80;;;;;;5075541;28;20036;-49
2021/01/07 04:17:31;;;;;;;4.05;1.80;;;27.70;43.70;;;;;;5075518;28;20460;-48
2021/01/07 04:19:58;;;;;;;4.25;2.15;;;27.80;43.50;;;;;;5073923;28;20025;-48
2021/01/07 04:22:25;;;;;;;6.68;1.92;;;27.90;43.40;;;;;;5075213;28;20483;-48
2021/01/07 04:24:52;;;;;;;3.92;1.63;;;28.00;43.30;;;;;;5075013;28;20024;-48
2021/01/07 04:27:18;;;;;;;4.45;2.10;;;28.00;43.30;;;;;;5075350;28;20441;-48
2021/01/07 04:29:45;;;;;;;9.35;2.05;;;28.10;43.10;;;;;;5074677;28;20462;-49
2021/01/07 04:32:13;;;;;;;5.28;2.17;;;28.10;43.10;;;;;;5075282;28;20033;-49
2021/01/07 04:34:39;;;;;;;4.28;2.10;;;28.10;42.90;;;;;;5075317;28;20045;-50
2021/01/07 04:37:06;;;;;;;5.22;2.20;;;28.20;42.90;;;;;;5073860;28;20020;-50
2021/01/07 04:39:32;;;;;;;3.75;1.92;;;28.20;42.80;;;;;;5074945;28;20025;-48
2021/01/07 04:41:59;;;;;;;5.05;2.03;;;28.20;42.80;;;;;;5074534;28;20460;-48
2021/01/07 04:44:26;;;;;;;4.70;2.10;;;28.20;42.70;;;;;;5074713;28;20480;-48
2021/01/07 04:46:53;;;;;;;6.93;2.05;;;28.20;42.70;;;;;;5074131;28;20387;-49
2021/01/07 04:49:20;;;;;;;4.25;2.03;;;28.20;42.70;;;;;;5074977;28;20357;-49
2021/01/07 04:51:47;;;;;;;4.13;1.88;;;28.20;42.70;;;;;;5075000;28;20025;-49
2021/01/07 04:54:14;;;;;;;4.07;1.80;;;28.20;42.70;;;;;;5075035;28;20457;-49
2021/01/07 04:56:42;;;;;;;4.53;2.13;;;28.20;42.70;;;;;;5074138;28;20458;-49
2021/01/07 04:59:08;;;;;;;6.40;2.20;;;28.20;42.70;;;;;;5074747;28;20423;-49
2021/01/07 05:01:35;;;;;;;4.78;2.20;;;28.20;42.70;;;;;;5074264;28;20032;-49
2021/01/07 05:04:04;;;;;;;5.65;2.40;;;28.10;42.70;;;;;;5074671;28;20048;-49
2021/01/07 05:06:30;;;;;;;5.07;2.17;;;28.10;42.80;;;;;;5074285;28;20388;-49
2021/01/07 05:09:01;;;;;;;5.40;2.40;;;28.10;42.80;;;;;;5074534;28;20121;-49
2021/01/07 05:11:29;;;;;;;4.30;2.08;;;28.00;42.70;;;;;;5075070;28;20093;-49
2021/01/07 05:14:07;;;;;;;6.63;2.05;;;28.00;42.80;;;;;;5074394;28;20043;-49
2021/01/07 05:16:34;;;;;;;4.80;2.25;;;27.90;42.80;;;;;;5074128;28;20464;-48
2021/01/07 05:19:09;;;;;;;5.03;2.45;;;27.90;42.90;;;;;;5073987;28;20040;-48
2021/01/07 05:21:36;;;;;;;5.97;2.70;;;27.90;43.00;;;;;;5074586;28;20078;-48
2021/01/07 05:24:03;;;;;;;6.10;2.83;;;27.80;42.90;;;;;;5074042;28;20055;-49
2021/01/07 05:26:30;;;;;;;4.63;2.70;;;27.80;42.90;;;;;;5074481;28;20111;-48
2021/01/07 05:28:58;;;;;;;6.53;2.25;;;27.70;43.00;;;;;;5074243;28;20020;-49
2021/01/07 05:31:26;;;;;;;8.38;2.75;;;27.70;43.10;;;;;;5073907;28;20017;-49
2021/01/07 05:33:54;;;;;;;4.82;2.78;;;27.70;43.20;;;;;;5072105;28;20040;-48
2021/01/07 05:36:26;;;;;;;7.05;2.88;;;27.60;43.10;;;;;;5073829;28;20044;-49
2021/01/07 05:39:03;;;;;;;7.45;2.90;;;27.50;43.10;;;;;;5072500;28;20039;-49
2021/01/07 05:41:30;;;;;;;6.43;2.90;;;27.50;43.30;;;;;;5072629;28;20031;-49
2021/01/07 05:44:06;;;;;;;7.03;3.05;;;27.40;43.40;;;;;;5073723;28;20036;-49
2021/01/07 05:46:34;;;;;;;5.18;3.00;;;27.30;43.40;;;;;;5073731;28;20032;-49
2021/01/07 05:49:01;;;;;;;5.97;3.20;;;27.30;43.60;;;;;;5073935;28;20375;-49
2021/01/07 05:51:29;;;;;;;9.85;2.97;;;27.20;43.50;;;;;;5073964;28;20496;-49
2021/01/07 05:54:00;;;;;;;7.55;3.20;;;27.10;43.50;;;;;;5073856;28;20085;-49
2021/01/07 05:56:27;;;;;;;14.13;3.25;;;27.10;43.60;;;;;;5073598;28;20464;-49
2021/01/07 05:58:55;;;;;;;8.82;3.67;;;27.00;43.60;;;;;;5073661;28;20031;-49
2021/01/07 06:01:23;;;;;;;10.75;3.75;;;26.90;43.70;;;;;;5074152;28;20468;-49
2021/01/07 06:03:51;;;;;;;9.10;3.97;;;26.80;43.70;;;;;;5073339;28;20064;-48
2021/01/07 06:06:23;;;;;;;10.25;4.05;;;26.70;43.80;;;;;;5073367;28;20029;-49
2021/01/07 06:08:57;;;;;;;12.02;4.07;;;26.60;43.90;;;;;;5073414;28;20085;-49
2021/01/07 06:11:25;;;;;;;8.10;4.00;;;26.50;44.00;;;;;;5073490;28;20029;-49
2021/01/07 06:13:53;;;;;;;9.55;3.65;;;26.50;44.20;;;;;;5073295;28;20487;-49
2021/01/07 06:16:21;;;;;;;13.18;3.75;;;26.30;44.20;;;;;;5072402;28;20032;-49
2021/01/07 06:18:48;;;;;;;9.43;4.10;;;26.30;44.30;;;;;;5074231;28;20028;-49
2021/01/07 06:21:16;;;;;;;8.88;4.28;;;26.20;44.40;;;;;;5073675;28;20410;-48
2021/01/07 06:23:44;;;;;;;13.90;3.83;;;26.10;44.50;;;;;;5073515;28;20025;-49
2021/01/07 06:26:21;;;;;;;9.98;4.07;;;26.00;44.60;;;;;;5073544;28;20059;-49
2021/01/07 06:28:59;;;;;;;8.27;3.80;;;25.90;44.60;;;;;;5073010;28;20104;-48
2021/01/07 06:31:38;;;;;;;9.65;4.20;;;25.80;44.80;;;;;;5073181;28;20414;-49
2021/01/07 06:34:07;;;;;;;9.18;3.70;;;25.70;44.90;;;;;;5073329;28;20036;-49
2021/01/07 06:36:44;;;;;;;8.68;3.95;;;25.60;45.00;;;;;;5073168;28;20380;-50
2021/01/07 06:39:11;;;;;;;12.15;3.88;;;25.50;45.00;;;;;;5073531;28;20025;-49
2021/01/07 06:41:38;;;;;;;9.75;4.05;;;25.50;45.20;;;;;;5073411;28;20464;-48
2021/01/07 06:44:06;;;;;;;9.68;3.83;;;25.40;45.20;;;;;;5073145;28;20487;-49
2021/01/07 06:46:48;;;;;;;8.93;4.18;;;25.30;45.30;;;;;;5072967;28;20036;-50
2021/01/07 06:49:30;;;;;;;9.70;4.38;;;25.20;45.40;;;;;;5073071;28;20354;-49
2021/01/07 06:52:01;;;;;;;13.88;3.95;;;25.10;45.50;;;;;;5073032;28;20089;-49
2021/01/07 06:54:37;;;;;;;6.95;3.50;;;25.10;45.70;;;;;;5073017;28;20468;-48
2021/01/07 06:57:13;;;;;;;10.02;3.95;;;24.90;45.70;;;;;;5073015;28;20025;-49
2021/01/07 07:00:00;;;;;;;7.28;3.55;;;24.90;45.80;;;;;;5073781;28;20475;-49
2021/01/07 07:02:27;;;;;;;8.98;3.90;;;24.80;45.90;;;;;;5072700;28;20516;-49
2021/01/07 07:05:09;;;;;;;9.15;3.88;;;24.70;46.10;;;;;;5072753;28;20080;-49
2021/01/07 07:07:38;;;;;;;11.57;4.65;;;24.60;46.10;;;;;;5073316;28;20020;-49
2021/01/07 07:10:23;;;;;;;10.73;4.20;;;24.50;46.20;;;;;;5073962;28;20037;-49
2021/01/07 07:12:51;;;;;;;7.55;4.25;;;24.50;46.30;;;;;;5076438;28;20029;-48
2021/01/07 07:15:22;;;;;;;11.38;3.97;;;24.40;46.40;;;;;;5075231;28;20051;-49
2021/01/07 07:17:53;;;;;;;8.85;4.15;;;24.30;46.60;;;;;;5076036;28;20028;-49
2021/01/07 16:23:53;;;;;;;14.05;2.78;;;14.60;65.40;;;;;;5050773;27;2031537;-50
2021/01/07 16:26:45;;;;;;;7.25;2.05;;;14.30;64.10;;;;;;5090748;28;20031;-48
2021/01/07 16:29:13;;;;;;;11.95;4.88;;;14.40;65.10;;;;;;5108842;28;20020;-48
2021/01/07 16:31:40;;;;;;;7.95;3.70;;;14.50;65.20;;;;;;5110575;28;20052;-48
2021/01/07 16:34:07;;;;;;;10.27;3.42;;;14.60;65.30;;;;;;5111245;28;20109;-48
2021/01/07 16:36:38;;;;;;;8.52;3.17;;;14.70;65.30;;;;;;5111234;28;20042;-48
2021/01/07 16:39:09;;;;;;;10.87;3.10;;;14.90;65.10;;;;;;5111883;28;20027;-48
2021/01/07 16:41:37;;;;;;;12.45;3.55;;;15.10;64.80;;;;;;5111733;28;20070;-48
2021/01/07 16:44:04;;;;;;;9.15;3.30;;;15.30;64.70;;;;;;5110266;28;20378;-48
2021/01/07 16:46:31;;;;;;;9.85;2.90;;;15.50;64.70;;;;;;5095913;28;20024;-48
2021/01/07 16:48:57;;;;;;;18.98;2.88;;;15.80;64.70;;;;;;5099571;28;20490;-47
2021/01/07 16:51:24;;;;;;;11.40;2.95;;;15.90;64.40;;;;;;5111318;28;20111;-48
2021/01/07 16:53:51;;;;;;;8.65;2.55;;;16.20;64.00;;;;;;5111433;28;20024;-48
2021/01/07 16:56:18;;;;;;;6.10;2.40;;;16.40;63.50;;;;;;5110905;28;20517;-49
2021/01/07 16:58:44;;;;;;;5.60;2.40;;;16.60;63.00;;;;;;5111644;28;20028;-48
2021/01/07 17:01:11;;;;;;;5.85;2.10;;;16.90;62.50;;;;;;5110946;28;20071;-49
2021/01/07 17:03:37;;;;;;;8.50;2.70;;;17.10;62.00;;;;;;5110938;28;20031;-48
2021/01/07 17:06:04;;;;;;;8.23;2.17;;;17.40;61.50;;;;;;5111027;28;20374;-48
2021/01/07 17:08:31;;;;;;;8.55;2.03;;;17.60;61.10;;;;;;5096742;28;20050;-47
2021/01/07 17:10:57;;;;;;;4.90;2.10;;;17.80;60.60;;;;;;5091139;28;20028;-48
2021/01/07 17:13:24;;;;;;;7.50;1.85;;;18.00;60.00;;;;;;5090600;28;20371;-48
2021/01/07 17:15:50;;;;;;;7.50;2.03;;;18.20;59.60;;;;;;5090766;28;20024;-48
2021/01/07 17:18:17;;;;;;;5.38;1.70;;;18.40;59.00;;;;;;5090813;28;20111;-48
2021/01/07 17:20:45;;;;;;;4.43;1.67;;;18.60;58.50;;;;;;5090181;28;20104;-48
2021/01/07 17:23:12;;;;;;;8.10;2.70;;;18.70;58.00;;;;;;5089757;28;20442;-48
2021/01/07 17:25:38;;;;;;;11.05;2.20;;;18.90;57.50;;;;;;5099935;28;20115;-48
2021/01/07 17:28:05;;;;;;;14.60;2.40;;;19.10;57.10;;;;;;5109253;28;20035;-48
2021/01/07 17:30:31;;;;;;;10.68;2.08;;;19.20;56.70;;;;;;5110796;28;20039;-48
2021/01/07 17:32:58;;;;;;;9.75;2.17;;;19.40;56.40;;;;;;5106919;28;20451;-48
2021/01/07 17:35:25;;;;;;;10.18;2.35;;;19.50;56.00;;;;;;5096327;28;20106;-49
2021/01/07 17:37:51;;;;;;;9.65;1.65;;;19.60;55.70;;;;;;5092925;28;20058;-48
2021/01/07 17:40:18;;;;;;;8.82;1.90;;;19.70;55.90;;;;;;5076573;28;20036;-48
2021/01/07 17:42:45;;;;;;;4.95;1.75;;;19.80;54.70;;;;;;5076435;28;20032;-48
2021/01/07 17:45:12;;;;;;;12.82;1.60;;;19.90;54.30;;;;;;5076356;28;20040;-48
2021/01/07 17:47:38;;;;;;;5.68;1.70;;;20.00;54.10;;;;;;5096038;28;20425;-48
2021/01/07 17:50:05;;;;;;;9.13;1.88;;;20.10;53.80;;;;;;5096650;28;20020;-48
2021/01/07 17:52:31;;;;;;;6.28;1.70;;;20.20;53.70;;;;;;5096518;28;20459;-48
2021/01/07 17:54:58;;;;;;;5.18;1.77;;;20.30;53.50;;;;;;5095456;28;20067;-48
2021/01/07 17:57:25;;;;;;;10.52;2.22;;;20.40;53.30;;;;;;5096262;28;20463;-49
2021/01/07 17:59:57;;;;;;;7.47;2.40;;;20.50;53.70;;;;;;5096329;28;20029;-49
2021/01/07 18:02:24;;;;;;;10.88;1.80;;;20.50;53.90;;;;;;5096359;28;20051;-48
2021/01/07 18:04:50;;;;;;;8.98;1.77;;;20.60;53.90;;;;;;5096235;28;20046;-48
2021/01/07 18:07:17;;;;;;;6.82;1.90;;;20.70;53.80;;;;;;5095497;28;20028;-48
2021/01/07 18:09:45;;;;;;;8.15;1.95;;;20.80;53.60;;;;;;5096232;28;20075;-48
2021/01/07 18:12:11;;;;;;;6.53;1.80;;;20.90;53.80;;;;;;5096152;28;20450;-48
2021/01/07 18:14:38;;;;;;;9.32;2.10;;;21.00;53.40;;;;;;5096683;28;20073;-48
2021/01/07 18:17:04;;;;;;;10.25;1.77;;;21.10;53.20;;;;;;5095749;28;20030;-48
2021/01/07 18:19:31;;;;;;;7.97;1.92;;;21.10;52.80;;;;;;5096140;28;20028;-48
2021/01/07 18:21:57;;;;;;;9.77;2.08;;;21.20;52.70;;;;;;5095677;28;20031;-48
2021/01/07 18:24:24;;;;;;;7.68;2.00;;;21.20;52.50;;;;;;5096078;28;20032;-48
2021/01/07 18:26:52;;;;;;;8.15;2.80;;;21.30;52.30;;;;;;5095987;28;20032;-48
2021/01/07 18:29:20;;;;;;;85.70;64.72;;;21.40;52.10;;;;;;5095528;28;20024;-49
2021/01/07 18:31:47;;;;;;;22.52;13.50;;;21.40;52.00;;;;;;5093614;28;20059;-48
2021/01/07 18:34:14;;;;;;;18.23;9.73;;;21.50;51.80;;;;;;5094398;28;20055;-49
2021/01/07 18:36:41;;;;;;;19.10;12.15;;;21.50;51.60;;;;;;5094905;28;20032;-48
2021/01/07 18:39:08;;;;;;;19.80;12.18;;;21.50;51.40;;;;;;5094552;28;20058;-48
2021/01/07 18:41:35;;;;;;;20.38;12.25;;;21.50;51.20;;;;;;5095279;28;20035;-48
2021/01/07 18:44:01;;;;;;;19.15;11.70;;;21.50;51.70;;;;;;5094822;28;20106;-48
2021/01/07 18:46:28;;;;;;;17.67;10.95;;;21.50;51.00;;;;;;5094499;28;20053;-48
2021/01/07 18:48:55;;;;;;;17.23;10.10;;;21.50;50.90;;;;;;5095632;28;20028;-48
2021/01/07 18:51:24;;;;;;;21.17;10.05;;;21.50;50.80;;;;;;5095247;28;20028;-48
2021/01/07 18:53:52;;;;;;;17.05;9.25;;;21.50;50.70;;;;;;5095210;28;20423;-48
2021/01/07 18:56:18;;;;;;;13.35;8.43;;;21.60;50.70;;;;;;5094421;28;20020;-49
2021/01/07 18:58:45;;;;;;;11.73;8.43;;;21.50;50.60;;;;;;5095326;28;20039;-48
2021/01/07 19:01:12;;;;;;;16.42;8.23;;;21.50;50.60;;;;;;5094843;28;20023;-48
2021/01/07 19:03:38;;;;;;;14.07;8.70;;;21.50;50.50;;;;;;5095170;28;20024;-48
2021/01/07 19:06:05;;;;;;;10.65;8.10;;;21.50;50.40;;;;;;5095089;28;20463;-48
2021/01/07 19:08:32;;;;;;;14.18;7.28;;;21.60;50.60;;;;;;5095034;28;20028;-48
2021/01/07 19:10:59;;;;;;;11.63;7.28;;;21.60;50.40;;;;;;5094704;28;20081;-48
2021/01/07 19:13:25;;;;;;;12.77;7.20;;;21.60;50.40;;;;;;5093965;28;20020;-49
2021/01/07 19:15:52;;;;;;;9.95;6.80;;;21.60;50.30;;;;;;5094921;28;20044;-48
2021/01/07 19:18:18;;;;;;;11.50;6.80;;;21.60;50.30;;;;;;5094832;28;20099;-48
2021/01/07 19:20:45;;;;;;;12.75;6.80;;;21.60;50.20;;;;;;5094767;28;20024;-48
2021/01/07 19:23:13;;;;;;;10.57;6.13;;;21.60;50.20;;;;;;5094679;28;20396;-48
2021/01/07 19:25:40;;;;;;;8.32;5.60;;;21.70;50.10;;;;;;5093465;28;20571;-48
2021/01/07 19:28:07;;;;;;;8.40;6.00;;;21.70;50.70;;;;;;5094913;28;20047;-48
2021/01/07 19:30:34;;;;;;;9.20;5.10;;;21.70;50.00;;;;;;5094984;28;20490;-48
2021/01/07 19:33:00;;;;;;;10.27;5.57;;;21.70;49.90;;;;;;5094623;28;20024;-48
2021/01/07 19:35:27;;;;;;;8.85;5.28;;;21.80;49.90;;;;;;5094647;28;20467;-48
2021/01/07 19:37:55;;;;;;;7.80;4.93;;;21.80;49.90;;;;;;5094299;28;20032;-48
2021/01/07 19:40:23;;;;;;;8.05;5.20;;;21.80;49.90;;;;;;5094543;28;20028;-48
2021/01/07 19:42:58;;;;;;;9.50;5.35;;;21.90;49.80;;;;;;5094592;28;20028;-48
2021/01/07 19:45:24;;;;;;;7.45;4.40;;;21.90;49.70;;;;;;5094303;28;20418;-48
2021/01/07 19:47:58;;;;;;;9.30;4.88;;;21.90;49.70;;;;;;5094417;28;20028;-48
2021/01/07 19:50:26;;;;;;;5.38;4.20;;;21.90;49.60;;;;;;5094649;28;20024;-48
2021/01/07 19:52:53;;;;;;;6.95;4.38;;;21.90;49.60;;;;;;5094446;28;20032;-48
2021/01/07 19:55:21;;;;;;;6.35;3.88;;;22.00;49.60;;;;;;5094372;28;20460;-48
2021/01/07 19:57:48;;;;;;;5.93;4.10;;;22.00;49.50;;;;;;5094051;28;20063;-48
2021/01/07 20:00:15;;;;;;;6.00;3.97;;;22.00;49.40;;;;;;5094236;28;20027;-48
2021/01/07 20:02:46;;;;;;;5.60;3.83;;;22.00;49.40;;;;;;5093953;28;20455;-48
2021/01/07 20:05:14;;;;;;;6.20;3.70;;;22.10;49.30;;;;;;5094289;28;20028;-48
2021/01/07 20:07:49;;;;;;;7.72;3.92;;;22.10;49.30;;;;;;5094144;28;20035;-48
2021/01/07 20:10:18;;;;;;;7.32;3.58;;;22.10;49.90;;;;;;5094169;28;20070;-48
2021/01/07 20:12:56;;;;;;;4.32;3.13;;;22.20;49.20;;;;;;5094292;28;20031;-48
2021/01/07 20:15:24;;;;;;;5.78;3.40;;;22.20;49.10;;;;;;5094002;28;20092;-48
2021/01/07 20:17:51;;;;;;;5.72;3.38;;;22.20;49.10;;;;;;5094071;28;20024;-48
2021/01/07 20:20:17;;;;;;;5.53;3.30;;;22.20;49.10;;;;;;5094213;28;20024;-48
2021/01/07 20:22:44;;;;;;;5.15;3.20;;;22.20;49.00;;;;;;5093927;28;20044;-48
2021/01/07 20:25:13;;;;;;;7.90;3.45;;;22.20;49.00;;;;;;5094290;28;20074;-48
2021/01/07 20:27:44;;;;;;;5.45;3.00;;;22.30;49.00;;;;;;5093967;28;20406;-48
2021/01/07 20:30:12;;;;;;;4.65;3.05;;;22.30;49.00;;;;;;5094003;28;20101;-48
2021/01/07 20:32:39;;;;;;;3.92;2.70;;;22.30;48.90;;;;;;5093864;28;20025;-48
2021/01/07 20:35:08;;;;;;;4.05;2.80;;;22.30;49.00;;;;;;5093884;28;20028;-48
2021/01/07 20:37:34;;;;;;;3.58;2.33;;;22.20;48.90;;;;;;5094305;28;20024;-48
2021/01/07 20:40:01;;;;;;;4.35;2.90;;;22.30;49.00;;;;;;5093813;28;20097;-48
2021/01/07 20:42:28;;;;;;;4.82;2.55;;;22.20;48.90;;;;;;5093845;28;20056;-48
2021/01/07 20:44:54;;;;;;;5.00;2.58;;;22.20;48.90;;;;;;5093698;28;20032;-48
2021/01/07 20:47:21;;;;;;;6.07;2.60;;;22.20;49.00;;;;;;5093794;28;20024;-48
2021/01/07 20:49:48;;;;;;;4.93;2.42;;;22.20;49.00;;;;;;5093801;28;20023;-48
2021/01/07 20:52:15;;;;;;;3.83;2.53;;;22.20;49.10;;;;;;5093637;28;20065;-48
2021/01/07 20:54:41;;;;;;;4.43;2.30;;;22.20;49.00;;;;;;5093977;28;20081;-48
2021/01/07 20:57:11;;;;;;;5.05;2.40;;;22.20;49.10;;;;;;5092535;28;20025;-48
2021/01/07 20:59:38;;;;;;;4.45;2.40;;;22.20;49.10;;;;;;5093492;28;20052;-48
2021/01/07 21:02:05;;;;;;;4.32;2.50;;;22.20;49.20;;;;;;5093549;28;20553;-48
2021/01/07 21:04:32;;;;;;;4.00;2.35;;;22.10;49.20;;;;;;5094171;28;20089;-48
2021/01/07 21:07:03;;;;;;;4.28;2.50;;;22.10;49.30;;;;;;5093331;28;20024;-48
2021/01/07 21:09:32;;;;;;;3.50;2.30;;;22.10;49.30;;;;;;5095415;28;20111;-48
2021/01/07 21:12:03;;;;;;;3.70;2.30;;;22.10;49.50;;;;;;5097051;28;20487;-48
2021/01/07 21:14:30;;;;;;;3.13;2.30;;;22.10;49.50;;;;;;5097468;28;20487;-48
2021/01/07 21:16:57;;;;;;;3.67;2.10;;;22.00;49.60;;;;;;5097238;28;20028;-48
2021/01/07 21:19:24;;;;;;;3.42;2.10;;;22.00;49.70;;;;;;5096975;28;20675;-48
2021/01/07 21:21:59;;;;;;;4.43;2.30;;;22.00;49.90;;;;;;5096971;28;20099;-49
2021/01/07 21:24:27;;;;;;;4.57;2.33;;;22.00;49.90;;;;;;5097017;28;20028;-48
2021/01/07 21:26:55;;;;;;;3.83;2.28;;;22.00;50.10;;;;;;5097054;28;20064;-48
2021/01/07 21:29:22;;;;;;;3.65;1.95;;;22.00;50.30;;;;;;5096767;28;20027;-48
2021/01/07 21:31:55;;;;;;;4.13;2.25;;;21.90;50.60;;;;;;5096891;28;20071;-48
2021/01/07 21:34:23;;;;;;;3.33;2.10;;;21.90;50.70;;;;;;5096918;28;20092;-48
2021/01/07 21:36:51;;;;;;;4.88;2.40;;;21.90;50.70;;;;;;5096840;28;20032;-48
2021/01/07 21:39:17;;;;;;;3.58;2.20;;;21.90;50.60;;;;;;5096937;28;20020;-48
2021/01/07 21:41:48;;;;;;;3.08;1.98;;;21.90;50.40;;;;;;5096856;28;20039;-48
2021/01/07 21:44:16;;;;;;;3.60;2.03;;;21.90;50.30;;;;;;5095467;28;20460;-48
2021/01/07 21:46:44;;;;;;;3.25;2.33;;;21.90;50.20;;;;;;5096650;28;20030;-48
2021/01/07 21:49:11;;;;;;;3.47;2.28;;;21.90;50.10;;;;;;5096671;28;20024;-48
2021/01/07 21:51:37;;;;;;;3.85;2.17;;;21.80;50.00;;;;;;5097053;28;20359;-48